createdAt,value
2023-05-20T00:01:28.822Z,12.40
2023-05-20T00:08:11.368Z,12.50
2023-05-20T00:14:55.883Z,12.50
2023-05-20T00:21:38.730Z,12.50
2023-05-20T00:28:21.656Z,12.50
2023-05-20T00:35:04.919Z,12.40
2023-05-20T00:41:47.330Z,12.20
2023-05-20T00:48:41.111Z,12.40
2023-05-20T00:55:23.538Z,12.20
2023-05-20T01:02:06.921Z,12.20
2023-05-20T01:08:49.292Z,12.30
2023-05-20T01:15:32.045Z,12.20
2023-05-20T01:22:15.379Z,12.30
2023-05-20T01:29:04.266Z,12.30
2023-05-20T01:35:47.443Z,12.40
2023-05-20T01:42:32.954Z,12.50
2023-05-20T01:49:15.866Z,12.50
2023-05-20T01:55:58.218Z,12.50
2023-05-20T02:02:41.620Z,12.50
2023-05-20T02:09:26.710Z,12.40
2023-05-20T02:16:09.070Z,12.30
2023-05-20T02:22:51.430Z,12.20
2023-05-20T02:29:33.918Z,12.10
2023-05-20T02:36:17.172Z,12.10
2023-05-20T02:43:01.558Z,12.30
2023-05-20T02:49:43.915Z,12.40
2023-05-20T02:56:27.022Z,12.40
2023-05-20T03:03:10.668Z,12.30
2023-05-20T03:09:53.176Z,12.20
2023-05-20T03:16:35.682Z,12.10
2023-05-20T03:23:18.391Z,12.20
2023-05-20T03:30:02.286Z,12.20
2023-05-20T03:36:45.039Z,12.00
2023-05-20T03:43:28.759Z,12.00
2023-05-20T03:50:12.227Z,11.90
2023-05-20T03:56:54.846Z,11.90
2023-05-20T04:03:37.654Z,11.90
2023-05-20T04:10:23.350Z,11.80
2023-05-20T04:17:07.928Z,11.90
2023-05-20T04:23:50.703Z,12.20
2023-05-20T04:30:33.501Z,12.50
2023-05-20T04:37:16.513Z,12.90
2023-05-20T04:44:00.429Z,13.10
2023-05-20T04:50:43.110Z,13.20
2023-05-20T04:57:25.592Z,13.50
2023-05-20T05:04:08.076Z,13.70
2023-05-20T05:10:51.631Z,14.40
2023-05-20T05:17:34.128Z,15.40
2023-05-20T05:24:17.103Z,16.20
2023-05-20T05:30:59.944Z,16.30
2023-05-20T05:37:42.432Z,16.60
2023-05-20T05:44:25.102Z,16.70
2023-05-20T05:51:07.552Z,16.60
2023-05-20T05:57:51.904Z,17.60
2023-05-20T06:04:34.509Z,17.80
2023-05-20T06:11:17.101Z,19.30
2023-05-20T06:17:59.574Z,19.90
2023-05-20T06:24:42.562Z,21.20
2023-05-20T06:31:25.638Z,24.40
2023-05-20T06:38:08.483Z,24.60
2023-05-20T06:44:51.043Z,25.60
2023-05-20T06:51:48.016Z,23.80
2023-05-20T06:58:30.501Z,22.90
2023-05-20T07:05:13.793Z,23.90
2023-05-20T07:11:56.307Z,23.10
2023-05-20T07:18:38.820Z,22.20
2023-05-20T07:25:22.270Z,21.70
2023-05-20T07:32:05.794Z,21.60
2023-05-20T07:38:56.929Z,22.70
2023-05-20T07:45:44.705Z,23.00
2023-05-20T07:52:27.760Z,23.40
2023-05-20T07:59:10.510Z,22.00
2023-05-20T08:05:58.095Z,23.40
2023-05-20T08:12:41.214Z,22.10
2023-05-20T08:19:24.142Z,23.60
2023-05-20T08:26:06.915Z,21.90
2023-05-20T08:32:51.785Z,21.20
2023-05-20T08:39:34.261Z,21.40
2023-05-20T08:46:18.836Z,20.80
2023-05-20T08:53:01.674Z,20.20
2023-05-20T08:59:46.963Z,20.70
2023-05-20T09:06:30.001Z,21.90
2023-05-20T09:13:12.465Z,23.10
2023-05-20T09:19:54.788Z,22.20
2023-05-20T09:26:37.175Z,23.30
2023-05-20T09:33:19.482Z,26.00
2023-05-20T09:40:09.127Z,28.60
2023-05-20T09:46:53.191Z,28.30
2023-05-20T09:53:36.247Z,31.30
2023-05-20T10:00:19.467Z,30.10
2023-05-20T10:07:20.936Z,30.20
2023-05-20T10:14:26.232Z,29.40
2023-05-20T10:21:16.899Z,28.40
2023-05-20T10:28:08.970Z,29.60
2023-05-20T10:34:51.709Z,26.70
2023-05-20T10:41:34.744Z,27.90
2023-05-20T10:48:23.612Z,28.10
2023-05-20T10:55:07.484Z,26.00
2023-05-20T11:01:50.331Z,25.00
2023-05-20T11:08:32.687Z,23.90
2023-05-20T11:15:15.880Z,23.80
2023-05-20T11:21:58.193Z,24.60
2023-05-20T11:28:41.055Z,24.30
2023-05-20T11:35:24.629Z,24.30
2023-05-20T11:42:07.104Z,24.00
2023-05-20T11:48:57.464Z,24.50
2023-05-20T11:55:53.756Z,24.10
2023-05-20T12:02:36.408Z,23.80
2023-05-20T12:09:19.197Z,23.50
2023-05-20T12:16:01.731Z,23.50
2023-05-20T12:22:45.411Z,24.40
2023-05-20T12:29:27.738Z,25.20
2023-05-20T12:36:10.373Z,25.40
2023-05-20T12:42:52.822Z,24.80
2023-05-20T12:49:35.571Z,24.40
2023-05-20T12:56:19.102Z,24.80
2023-05-20T13:03:01.651Z,25.40
2023-05-20T13:09:44.863Z,24.70
2023-05-20T13:16:27.587Z,25.40
2023-05-20T13:23:09.934Z,26.20
2023-05-20T13:29:52.333Z,25.40
2023-05-20T13:36:34.724Z,25.20
2023-05-20T13:43:17.094Z,25.40
2023-05-20T13:50:01.937Z,25.40
2023-05-20T13:56:45.365Z,26.30
2023-05-20T14:03:27.826Z,25.80
2023-05-20T14:10:11.460Z,25.30
2023-05-20T14:16:54.240Z,25.50
2023-05-20T14:23:36.591Z,25.80
2023-05-20T14:30:19.059Z,25.50
2023-05-20T14:37:07.460Z,25.30
2023-05-20T14:43:49.754Z,25.60
2023-05-20T14:50:32.191Z,25.30
2023-05-20T14:57:16.028Z,25.20
2023-05-20T15:03:58.743Z,24.70
2023-05-20T15:10:41.282Z,25.10
2023-05-20T15:17:23.763Z,24.70
2023-05-20T15:24:06.455Z,24.70
2023-05-20T15:30:54.042Z,25.00
2023-05-20T15:37:36.396Z,24.70
2023-05-20T15:44:18.825Z,24.50
2023-05-20T15:51:01.481Z,24.10
2023-05-20T15:57:43.921Z,24.30
2023-05-20T16:04:26.612Z,24.50
2023-05-20T16:11:09.807Z,24.40
2023-05-20T16:17:52.222Z,24.90
2023-05-20T16:24:34.662Z,24.90
2023-05-20T16:31:17.051Z,24.60
2023-05-20T16:38:00.813Z,24.70
2023-05-20T16:44:43.103Z,25.20
2023-05-20T16:51:26.134Z,25.20
2023-05-20T16:58:08.543Z,25.00
2023-05-20T17:04:51.076Z,24.70
2023-05-20T17:11:33.908Z,24.10
2023-05-20T17:18:16.686Z,23.70
2023-05-20T17:24:59.020Z,23.40
2023-05-20T17:31:41.347Z,23.20
2023-05-20T17:38:26.357Z,23.30
2023-05-20T17:45:09.187Z,23.10
2023-05-20T17:51:51.560Z,23.00
2023-05-20T17:58:34.231Z,23.00
2023-05-20T18:05:19.411Z,22.90
2023-05-20T18:12:01.760Z,22.60
2023-05-20T18:18:44.137Z,22.50
2023-05-20T18:25:26.713Z,22.30
2023-05-20T18:32:09.344Z,22.00
2023-05-20T18:38:51.827Z,21.80
2023-05-20T18:45:34.291Z,21.70
2023-05-20T18:52:16.693Z,21.60
2023-05-20T18:59:02.073Z,21.40
2023-05-20T19:05:44.709Z,21.20
2023-05-20T19:12:27.521Z,21.10
2023-05-20T19:19:10.123Z,21.00
2023-05-20T19:25:52.547Z,20.90
2023-05-20T19:32:34.990Z,20.70
2023-05-20T19:39:17.604Z,20.60
2023-05-20T19:46:00.066Z,20.40
2023-05-20T19:52:42.524Z,20.20
2023-05-20T19:59:24.962Z,20.00
2023-05-20T20:06:08.066Z,20.00
2023-05-20T20:12:50.526Z,19.80
2023-05-20T20:19:34.059Z,19.60
2023-05-20T20:26:16.532Z,19.60
2023-05-20T20:32:59.093Z,19.40
2023-05-20T20:39:41.581Z,19.30
2023-05-20T20:46:24.118Z,18.90
2023-05-20T20:53:06.727Z,18.70
2023-05-20T20:59:50.833Z,18.50
2023-05-20T21:06:34.690Z,18.30
2023-05-20T21:13:17.286Z,18.10
2023-05-20T21:19:59.871Z,18.10
2023-05-20T21:26:42.448Z,18.00
2023-05-20T21:33:25.075Z,17.80
2023-05-20T21:40:07.974Z,17.80
2023-05-20T21:46:50.433Z,17.80
2023-05-20T21:53:32.871Z,17.50
2023-05-20T22:00:18.694Z,17.40
2023-05-20T22:07:03.572Z,17.30
2023-05-20T22:13:48.809Z,17.30
2023-05-20T22:20:33.679Z,17.40
2023-05-20T22:27:16.005Z,17.50
2023-05-20T22:33:58.324Z,17.80
2023-05-20T22:40:40.716Z,17.70
2023-05-20T22:47:23.093Z,17.50
2023-05-20T22:54:06.838Z,17.40
2023-05-20T23:00:49.491Z,17.30
2023-05-20T23:07:32.245Z,17.30
2023-05-20T23:14:14.713Z,17.10
2023-05-20T23:20:57.044Z,17.10
2023-05-20T23:27:39.392Z,17.20
2023-05-20T23:34:21.932Z,17.20
2023-05-20T23:41:04.506Z,17.30
2023-05-20T23:47:46.895Z,17.20
2023-05-20T23:54:29.911Z,17.20
